Taunton, Minnesota
Current Conditions -  °F | °C
As of 5:34 PM on Monday 22 Dec 2014 (Local Time) from KCNB Reporting Station
Haze Haze  
Wind Chill: 30°   Ceiling: 200
Heat Index: 37°   Visibility: 4mi
Dew Point: 37°   Wind: 9mph
Humidity: 99%   Direction: 110°ESE
Pressure: 29.49"   Gusts: NA
Location:  44.59°N, 96.07°W
Report Text: KCNB 222334Z AUTO 11008KT 4SM BR OVC002 03/03 A2949 RMK AO2 T00270026
Loading
Personal Weather Stations






























Interactive Weather Map New forecast layout! Learn more

10-Day Weather Forecast

Advertisements
Track Severe Weather on mobile